Solana — WCY5602 — position and weather

sailwx.info

Track history (hours):
 
Tides and Currents Weather Stations Pressure Air Temp Water Temp Dewpoint Dewpoint Depression Visibility Wind Speed Wind Dir Waves Ship Positions

Solana

Owner: TAURUS MARINE, SAN FRANCISCO, CA. More information available from US FCC via Universal Licensing System and Coast Guard Vessel Documentation Center.

Last reported at 2015-Jan-31 04:33 UTC. Time now 2015-Jan-31 05:35 UTC.
Position N 47°39' W 122°20'.

Type: Towing. MMSI: 366969740.

Date/timePositionNaut miles runAvg speedWind from/ knotsBaromVisibWave heightAir tempDewpointWater temp
2015-Jan-31 04:33N 47°39' W 122°20'0 0.0
2015-Jan-31 04:32N 47°39' W 122°20'0 0.0
2015-Jan-31 03:33N 47°39' W 122°20'0 0.0
2015-Jan-31 03:32N 47°39' W 122°20'0 0.0
2015-Jan-31 02:37N 47°39' W 122°20'0 0.0
2015-Jan-31 02:33N 47°39' W 122°20'0 0.0
2015-Jan-31 01:15N 47°39' W 122°20'0 0.0
2015-Jan-31 01:13N 47°39' W 122°20'0 0.0
2015-Jan-31 00:36N 47°39' W 122°20'0 0.0
2015-Jan-31 00:33N 47°39' W 122°20'0 0.0
2015-Jan-30 23:33N 47°39' W 122°20'0 0.0
2015-Jan-30 23:31N 47°39' W 122°20'0 0.0
2015-Jan-30 22:33N 47°39' W 122°20'0 0.0
2015-Jan-30 22:31N 47°39' W 122°20'2 2.2
2015-Jan-30 21:33N 47°40' W 122°23'0 5.2
2015-Jan-30 21:30N 47°40' W 122°24'3 3.3
2015-Jan-30 20:33N 47°37' W 122°24'1 8.9
2015-Jan-30 20:30N 47°36' W 122°23'3 3.2
2015-Jan-30 19:33N 47°34' W 122°21'0 3.9
2015-Jan-30 19:30N 47°34' W 122°21'4 3.8
2015-Jan-30 18:33N 47°37' W 122°24'0 9.1
2015-Jan-30 18:30N 47°37' W 122°25'3 2.8
2015-Jan-30 17:33N 47°40' W 122°23'0 5.8
2015-Jan-30 17:30N 47°40' W 122°23'2 0.8
2015-Jan-30 15:26N 47°39' W 122°20'0 0.0
2015-Jan-30 15:06N 47°39' W 122°20'0 0.0
2015-Jan-30 14:34N 47°39' W 122°20'0 0.0
2015-Jan-30 14:31N 47°39' W 122°20'0 0.0
2015-Jan-30 13:33N 47°39' W 122°20'0 0.0
2015-Jan-30 13:31N 47°39' W 122°20'0 0.0
2015-Jan-30 12:33N 47°39' W 122°20'0 0.0
2015-Jan-30 12:31N 47°39' W 122°20'0 0.0
2015-Jan-30 11:26N 47°39' W 122°20'0 0.0
2015-Jan-30 10:39N 47°39' W 122°20'0 0.0
2015-Jan-30 10:33N 47°39' W 122°20'0 0.0
2015-Jan-30 10:29N 47°39' W 122°20'0 0.0
2015-Jan-30 09:33N 47°39' W 122°20'0 0.0
2015-Jan-30 09:33N 47°39' W 122°20'0 0.0
2015-Jan-30 08:34N 47°39' W 122°20'0 0.0
2015-Jan-30 08:33N 47°39' W 122°20'0 0.0
2015-Jan-30 07:33N 47°39' W 122°20'0 0.0
2015-Jan-30 07:33N 47°39' W 122°20'0 0.0
2015-Jan-30 07:03N 47°39' W 122°20'0 0.0
2015-Jan-30 06:33N 47°39' W 122°20'0 0.0
2015-Jan-30 05:33N 47°39' W 122°20'0 0.0
2015-Jan-30 05:33N 47°39' W 122°20'0 0.0
2015-Jan-30 04:33N 47°39' W 122°20'0 0.0
2015-Jan-30 04:33N 47°39' W 122°20'0 0.0
2015-Jan-30 03:33N 47°39' W 122°20'0 0.0
2015-Jan-30 03:33N 47°39' W 122°20'0 0.0
2015-Jan-30 02:09N 47°39' W 122°20'0 0.0
2015-Jan-30 02:07N 47°39' W 122°20'0 0.0
2015-Jan-30 01:27N 47°39' W 122°20'0 0.0
2015-Jan-30 01:26N 47°39' W 122°20'0 0.0
2015-Jan-30 00:34N 47°39' W 122°20'0 0.0
2015-Jan-30 00:31N 47°39' W 122°20'0 0.0
2015-Jan-29 23:33N 47°39' W 122°20'0 0.0
2015-Jan-29 23:31N 47°39' W 122°20'0 0.0
2015-Jan-29 22:33N 47°39' W 122°20'0 0.0
2015-Jan-29 22:30N 47°39' W 122°20'0 0.0
2015-Jan-29 21:33N 47°39' W 122°20'0 0.1
2015-Jan-29 21:30N 47°39' W 122°20'0 0.0
2015-Jan-29 20:23N 47°39' W 122°20'0 0.0
2015-Jan-29 19:53N 47°39' W 122°20'0 0.0
2015-Jan-29 19:34N 47°39' W 122°20'0 0.5
2015-Jan-29 19:33N 47°39' W 122°20'0 0.0
2015-Jan-29 18:33N 47°39' W 122°20'0 0.0
2015-Jan-29 18:33N 47°39' W 122°20'0 0.0
2015-Jan-29 17:33N 47°39' W 122°20'0 0.0
2015-Jan-29 17:33N 47°39' W 122°20'0 0.0
2015-Jan-29 16:33N 47°39' W 122°20'0 0.0
2015-Jan-29 16:33N 47°39' W 122°20'0 0.0
2015-Jan-29 15:33N 47°39' W 122°20'0 0.0
2015-Jan-29 15:33N 47°39' W 122°20'0 0.0
2015-Jan-29 11:57N 47°39' W 122°20'0 0.0
2015-Jan-29 11:33N 47°39' W 122°20'0 0.0
2015-Jan-29 11:32N 47°39' W 122°20'0 0.0
2015-Jan-29 10:11N 47°39' W 122°20'0 0.0
2015-Jan-29 10:10N 47°39' W 122°20'0 0.0
2015-Jan-29 09:33N 47°39' W 122°20'0 0.0
2015-Jan-29 09:30N 47°39' W 122°20'0 0.0
2015-Jan-29 08:33N 47°39' W 122°20'0 0.0
2015-Jan-29 08:30N 47°39' W 122°20'0 0.0
2015-Jan-29 07:33N 47°39' W 122°20'0 0.0
2015-Jan-29 07:31N 47°39' W 122°20'0 0.0
2015-Jan-29 07:01N 47°39' W 122°20'0 0.0
2015-Jan-29 06:33N 47°39' W 122°20'0 0.0
2015-Jan-29 05:33N 47°39' W 122°20'0 0.0
2015-Jan-29 05:30N 47°39' W 122°20'0 0.0
2015-Jan-29 04:33N 47°39' W 122°20'0 0.0
2015-Jan-29 04:30N 47°39' W 122°20'0 0.0
2015-Jan-29 03:33N 47°39' W 122°20'0 0.0
2015-Jan-29 03:30N 47°39' W 122°20'0 0.0
2015-Jan-29 02:33N 47°39' W 122°20'0 0.0
2015-Jan-29 02:30N 47°39' W 122°20'0 0.0
2015-Jan-29 01:33N 47°39' W 122°20'0 0.0
2015-Jan-29 01:30N 47°39' W 122°20'0 0.0
2015-Jan-29 00:33N 47°39' W 122°20'0 0.1
2015-Jan-29 00:30N 47°39' W 122°20'0 0.0
2015-Jan-28 23:33N 47°39' W 122°20'0 0.0
2015-Jan-28 23:30N 47°39' W 122°20'0 0.0
2015-Jan-28 22:33N 47°39' W 122°20'0 0.0
2015-Jan-28 22:30N 47°39' W 122°20'0 0.0
2015-Jan-28 21:33N 47°39' W 122°20'0 0.0
2015-Jan-28 21:29N 47°39' W 122°20'0 0.0
2015-Jan-28 20:34N 47°39' W 122°20'0 0.0
2015-Jan-28 20:33N 47°39' W 122°20'0 0.0
2015-Jan-28 19:34N 47°39' W 122°20'0 0.1
2015-Jan-28 19:29N 47°39' W 122°20'0 0.0
2015-Jan-28 18:21N 47°39' W 122°20'0 0.0
2015-Jan-28 17:33N 47°39' W 122°20'0 0.0
2015-Jan-28 17:31N 47°39' W 122°20'0 0.0
2015-Jan-28 16:33N 47°39' W 122°20'0 0.0
2015-Jan-28 16:31N 47°39' W 122°20'0 0.0
2015-Jan-28 15:26N 47°39' W 122°20'0 0.0
2015-Jan-28 14:33N 47°39' W 122°20'0 0.0
2015-Jan-28 14:30N 47°39' W 122°20'0 0.0
2015-Jan-28 13:33N 47°39' W 122°20'0 0.0
2015-Jan-28 13:30N 47°39' W 122°20'0 0.0
2015-Jan-28 12:33N 47°39' W 122°20'0 0.0
2015-Jan-28 12:30N 47°39' W 122°20'0 0.0
2015-Jan-28 11:33N 47°39' W 122°20'0 0.0
2015-Jan-28 11:30N 47°39' W 122°20'0 0.0
2015-Jan-28 10:33N 47°39' W 122°20'0 0.0
2015-Jan-28 10:30N 47°39' W 122°20'0 0.0
2015-Jan-28 09:33N 47°39' W 122°20'0 0.0
2015-Jan-28 09:33N 47°39' W 122°20'0 0.0
2015-Jan-28 08:34N 47°39' W 122°20'0 0.0
2015-Jan-28 08:28N 47°39' W 122°20'0 0.0
2015-Jan-28 07:34N 47°39' W 122°20'0 0.0
2015-Jan-28 07:33N 47°39' W 122°20'0 0.0
2015-Jan-28 06:59N 47°39' W 122°20'0 0.0
2015-Jan-28 06:33N 47°39' W 122°20'0 0.0
2015-Jan-28 05:34N 47°39' W 122°20'0 0.0
2015-Jan-28 05:33N 47°39' W 122°20'0 0.0
2015-Jan-28 04:33N 47°39' W 122°20'0 0.0
2015-Jan-28 04:33N 47°39' W 122°20'0 0.0
2015-Jan-28 03:33N 47°39' W 122°20'0 0.0
2015-Jan-28 03:33N 47°39' W 122°20'0 0.0
2015-Jan-28 02:33N 47°39' W 122°20'0 0.0
2015-Jan-28 02:33N 47°39' W 122°20'0 0.0
2015-Jan-28 01:33N 47°39' W 122°20'0 0.0
2015-Jan-28 01:33N 47°39' W 122°20'0 0.0
2015-Jan-28 00:33N 47°39' W 122°20'0 0.0
2015-Jan-28 00:33N 47°39' W 122°20'0 0.0
2015-Jan-27 23:33N 47°39' W 122°20'0 0.0
2015-Jan-27 23:33N 47°39' W 122°20'0 0.0
2015-Jan-27 22:33N 47°39' W 122°20'0 0.0
2015-Jan-27 22:32N 47°39' W 122°20'0 0.0
2015-Jan-27 21:33N 47°39' W 122°20'0 0.0
2015-Jan-27 21:32N 47°39' W 122°20'0 0.0
2015-Jan-27 20:33N 47°39' W 122°20'0 0.0
2015-Jan-27 20:32N 47°39' W 122°20'0 0.0
2015-Jan-27 19:33N 47°39' W 122°20'0 0.0
2015-Jan-27 19:32N 47°39' W 122°20'0 0.0
2015-Jan-27 18:33N 47°39' W 122°20'0 0.0
2015-Jan-27 18:32N 47°39' W 122°20'0 0.0
2015-Jan-27 17:33N 47°39' W 122°20'0 0.0
2015-Jan-27 17:32N 47°39' W 122°20'0 0.0
2015-Jan-27 16:33N 47°39' W 122°20'0 0.2
2015-Jan-27 16:32N 47°39' W 122°20'0 0.0
2015-Jan-27 15:33N 47°39' W 122°20'0 0.0
2015-Jan-27 15:32N 47°39' W 122°20'0 0.0
2015-Jan-27 14:33N 47°39' W 122°20'0 0.0
2015-Jan-27 14:32N 47°39' W 122°20'0 0.0
2015-Jan-27 13:33N 47°39' W 122°20'0 0.2
2015-Jan-27 13:32N 47°39' W 122°20'0 0.0
2015-Jan-27 12:33N 47°39' W 122°20'0 0.0
2015-Jan-27 12:31N 47°39' W 122°20'0 0.0
2015-Jan-27 11:33N 47°39' W 122°20'0 0.0
2015-Jan-27 11:30N 47°39' W 122°20'0 0.0
2015-Jan-27 10:34N 47°39' W 122°20'0 0.0
2015-Jan-27 10:30N 47°39' W 122°20'0 0.0
2015-Jan-27 09:33N 47°39' W 122°20'0 0.0
2015-Jan-27 09:30N 47°39' W 122°20'0 0.0
2015-Jan-27 08:33N 47°39' W 122°20'0 0.0
2015-Jan-27 07:12N 47°39' W 122°20'0 0.0
2015-Jan-27 06:15N 47°39' W 122°20'0 0.0
2015-Jan-27 06:11N 47°39' W 122°20'0 0.0
2015-Jan-27 05:33N 47°39' W 122°20'0 0.0
2015-Jan-27 05:31N 47°39' W 122°20'0 0.0
2015-Jan-27 04:33N 47°39' W 122°20'0 0.2
2015-Jan-27 04:31N 47°39' W 122°20'0 0.0
2015-Jan-27 03:33N 47°39' W 122°20'0 0.0
2015-Jan-27 03:31N 47°39' W 122°20'0 0.0
2015-Jan-27 02:33N 47°39' W 122°20'0 0.0
2015-Jan-27 02:31N 47°39' W 122°20'0 0.0
2015-Jan-27 01:33N 47°39' W 122°20'0 0.0
2015-Jan-27 01:30N 47°39' W 122°20'0 0.0
2015-Jan-27 00:33N 47°39' W 122°20'0 0.1
2015-Jan-27 00:30N 47°39' W 122°20'0 0.0
2015-Jan-26 23:33N 47°39' W 122°20'0 0.0
2015-Jan-26 23:30N 47°39' W 122°20'0 0.0
2015-Jan-26 22:33N 47°39' W 122°20'0 0.0
2015-Jan-26 22:30N 47°39' W 122°20'0 0.0
2015-Jan-26 21:33N 47°39' W 122°20'0 0.0
2015-Jan-26 21:30N 47°39' W 122°20'0 0.0
2015-Jan-26 20:33N 47°39' W 122°20'0 0.0
2015-Jan-26 20:30N 47°39' W 122°20'0 0.0
2015-Jan-26 19:33N 47°39' W 122°20'0 0.0
2015-Jan-26 19:30N 47°39' W 122°20'0 0.0
2015-Jan-26 18:33N 47°39' W 122°20'0 0.1
2015-Jan-26 18:29N 47°39' W 122°20'0 0.0
2015-Jan-26 17:33N 47°39' W 122°20'0 0.0
2015-Jan-26 17:29N 47°39' W 122°20'0 0.0
2015-Jan-26 16:33N 47°39' W 122°20'0 0.0
2015-Jan-26 16:29N 47°39' W 122°20'0 0.0
2015-Jan-26 15:33N 47°39' W 122°20'0 0.0
2015-Jan-26 15:29N 47°39' W 122°20'0 0.0
2015-Jan-26 14:33N 47°39' W 122°20'0 0.0
2015-Jan-26 14:29N 47°39' W 122°20'0 0.0
2015-Jan-26 13:33N 47°39' W 122°20'0 0.0
2015-Jan-26 13:29N 47°39' W 122°20'0 0.0
2015-Jan-26 12:33N 47°39' W 122°20'0 0.0
2015-Jan-26 12:29N 47°39' W 122°20'0 0.0
2015-Jan-26 11:33N 47°39' W 122°20'0 0.0
2015-Jan-26 11:29N 47°39' W 122°20'0 0.0
2015-Jan-26 10:34N 47°39' W 122°20'0 0.0
2015-Jan-26 10:33N 47°39' W 122°20'0 0.0
2015-Jan-26 09:33N 47°39' W 122°20'0 0.0
2015-Jan-26 09:33N 47°39' W 122°20'0 0.0
2015-Jan-26 08:33N 47°39' W 122°20'0 0.0
2015-Jan-26 08:33N 47°39' W 122°20'0 0.0
2015-Jan-26 07:33N 47°39' W 122°20'0 0.0
2015-Jan-26 07:33N 47°39' W 122°20'0 0.0
2015-Jan-26 07:03N 47°39' W 122°20'0 0.0
2015-Jan-26 06:33N 47°39' W 122°20'0 0.0
2015-Jan-26 05:33N 47°39' W 122°20'0 0.0
2015-Jan-26 05:33N 47°39' W 122°20'0 0.0
2015-Jan-26 04:33N 47°39' W 122°20'0 0.0
2015-Jan-26 04:33N 47°39' W 122°20'0 0.0
2015-Jan-26 03:33N 47°39' W 122°20'0 0.0
2015-Jan-26 03:33N 47°39' W 122°20'0 0.0
2015-Jan-26 02:33N 47°39' W 122°20'0 0.0
2015-Jan-26 02:33N 47°39' W 122°20'0 0.0
2015-Jan-26 01:28N 47°39' W 122°20'0 0.0
2015-Jan-26 01:01N 47°39' W 122°20'0 0.0
2015-Jan-26 00:33N 47°39' W 122°20'0 0.0
2015-Jan-26 00:31N 47°39' W 122°20'0 0.0
2015-Jan-25 23:33N 47°39' W 122°20'0 0.0
2015-Jan-25 23:31N 47°39' W 122°20'0 0.0
2015-Jan-25 22:33N 47°39' W 122°20'0 0.0
2015-Jan-25 22:31N 47°39' W 122°20'0 0.0
2015-Jan-25 21:33N 47°39' W 122°20'0 0.1
2015-Jan-25 21:31N 47°39' W 122°20'0 0.0
2015-Jan-25 20:33N 47°39' W 122°20'0 0.1
2015-Jan-25 20:30N 47°39' W 122°20'0 0.0
2015-Jan-25 19:33N 47°39' W 122°20'0 0.0
2015-Jan-25 19:30N 47°39' W 122°20'0 0.0
2015-Jan-25 18:33N 47°39' W 122°20'0 0.1
2015-Jan-25 18:30N 47°39' W 122°20'0 0.0
2015-Jan-25 17:33N 47°39' W 122°20'0 0.0
2015-Jan-25 17:29N 47°39' W 122°20'0 0.0
2015-Jan-25 16:33N 47°39' W 122°20'0 0.0
2015-Jan-25 16:29N 47°39' W 122°20'0 0.0
2015-Jan-25 15:28N 47°39' W 122°20'0 0.0
2015-Jan-25 14:33N 47°39' W 122°20'0 0.0
2015-Jan-25 14:33N 47°39' W 122°20'0 0.0
2015-Jan-25 13:33N 47°39' W 122°20'0 0.0
2015-Jan-25 13:33N 47°39' W 122°20'0 0.0
2015-Jan-25 12:31N 47°39' W 122°20'0 0.0
2015-Jan-25 12:28N 47°39' W 122°20'0 0.0
2015-Jan-25 11:33N 47°39' W 122°20'0 0.0
2015-Jan-25 11:31N 47°39' W 122°20'0 0.0
2015-Jan-25 10:34N 47°39' W 122°20'0 0.0
2015-Jan-25 10:31N 47°39' W 122°20'0 0.0
2015-Jan-25 09:33N 47°39' W 122°20'0 0.0
2015-Jan-25 09:31N 47°39' W 122°20'0 0.0
2015-Jan-25 08:33N 47°39' W 122°20'0 0.0
2015-Jan-25 08:31N 47°39' W 122°20'0 0.0
2015-Jan-25 07:33N 47°39' W 122°20'0 0.0
2015-Jan-25 07:30N 47°39' W 122°20'0 0.0
2015-Jan-25 07:06N 47°39' W 122°20'0 0.0
2015-Jan-25 06:33N 47°39' W 122°20'0 0.0
2015-Jan-25 05:33N 47°39' W 122°20'0 0.0
2015-Jan-25 05:30N 47°39' W 122°20'0 0.0
2015-Jan-25 04:33N 47°39' W 122°20'0 0.0
2015-Jan-25 04:30N 47°39' W 122°20'0 0.0
2015-Jan-25 03:34N 47°39' W 122°20'0 0.0
2015-Jan-25 03:30N 47°39' W 122°20'0 0.0
2015-Jan-25 02:07N 47°39' W 122°20'0 0.0
2015-Jan-25 02:07N 47°39' W 122°20'0 0.0
2015-Jan-25 01:20N 47°39' W 122°20'0 0.1
2015-Jan-25 01:16N 47°39' W 122°20'0 0.0
2015-Jan-25 00:34N 47°39' W 122°20'0 0.0
2015-Jan-25 00:31N 47°39' W 122°20'0 0.0
2015-Jan-24 23:33N 47°39' W 122°20'0 0.0
2015-Jan-24 23:31N 47°39' W 122°20'0 0.0
2015-Jan-24 22:33N 47°39' W 122°20'0 0.0
2015-Jan-24 22:31N 47°39' W 122°20'0 0.0
2015-Jan-24 21:33N 47°39' W 122°20'0 0.1
2015-Jan-24 21:30N 47°39' W 122°20'0 0.0
2015-Jan-24 19:35N 47°39' W 122°20'0 0.0
2015-Jan-24 19:25N 47°39' W 122°20'0 0.0
2015-Jan-24 18:54N 47°39' W 122°20'0 0.0
2015-Jan-24 17:16N 47°39' W 122°20'0 0.0
2015-Jan-24 17:12N 47°39' W 122°20'0 0.0
2015-Jan-24 16:33N 47°39' W 122°20'0 0.0
2015-Jan-24 16:32N 47°39' W 122°20'0 0.0
2015-Jan-24 15:33N 47°39' W 122°20'0 0.2
2015-Jan-24 15:32N 47°39' W 122°20'0 0.0
2015-Jan-24 14:33N 47°39' W 122°20'0 0.0
2015-Jan-24 14:32N 47°39' W 122°20'0 0.0
2015-Jan-24 13:33N 47°39' W 122°20'0 0.0
2015-Jan-24 13:31N 47°39' W 122°20'0 0.0
2015-Jan-24 12:33N 47°39' W 122°20'0 0.0
2015-Jan-24 12:31N 47°39' W 122°20'0 0.0
2015-Jan-24 11:33N 47°39' W 122°20'0 0.0
2015-Jan-24 11:30N 47°39' W 122°20'0 0.0
2015-Jan-24 10:33N 47°39' W 122°20'0 0.1
2015-Jan-24 10:31N 47°39' W 122°20'0 0.0
2015-Jan-24 09:33N 47°39' W 122°20'0 0.0
2015-Jan-24 09:31N 47°39' W 122°20'0 0.0
2015-Jan-24 08:33N 47°39' W 122°20'0 0.0
2015-Jan-24 08:30N 47°39' W 122°20'0 0.0
2015-Jan-24 07:33N 47°39' W 122°20'0 0.0
2015-Jan-24 07:30N 47°39' W 122°20'0 0.0
2015-Jan-24 07:00N 47°39' W 122°20'0 0.0
2015-Jan-24 06:33N 47°39' W 122°20'0 0.0
2015-Jan-24 05:33N 47°39' W 122°20'0 0.0
2015-Jan-24 05:30N 47°39' W 122°20'0 0.0
2015-Jan-24 04:33N 47°39' W 122°20'0 0.0
2015-Jan-24 04:30N 47°39' W 122°20'0 0.0
2015-Jan-24 03:33N 47°39' W 122°20'0 0.0
2015-Jan-24 03:29N 47°39' W 122°20'0 0.0
2015-Jan-24 02:33N 47°39' W 122°20'0 0.0
2015-Jan-24 02:29N 47°39' W 122°20'0 0.0
2015-Jan-24 01:33N 47°39' W 122°20'0 0.0
2015-Jan-24 01:29N 47°39' W 122°20'0 0.0
2015-Jan-24 00:33N 47°39' W 122°20'0 0.0
2015-Jan-24 00:33N 47°39' W 122°20'0 0.0
2015-Jan-23 23:34N 47°39' W 122°20'0 0.0
2015-Jan-23 23:33N 47°39' W 122°20'0 0.0
2015-Jan-23 22:33N 47°39' W 122°20'0 0.0
2015-Jan-23 22:33N 47°39' W 122°20'0 0.0
2015-Jan-23 21:33N 47°39' W 122°20'0 0.0
2015-Jan-23 21:33N 47°39' W 122°20'0 0.0
2015-Jan-23 14:25N 47°39' W 122°20'0 0.0
2015-Jan-23 13:30N 47°39' W 122°20'0 0.0
2015-Jan-23 12:19N 47°39' W 122°20'0 0.0
2015-Jan-23 10:25N 47°39' W 122°20'0 0.0
2015-Jan-23 09:15N 47°39' W 122°20'0 0.0
2015-Jan-23 07:32N 47°39' W 122°20'0 0.0
2015-Jan-23 06:30N 47°39' W 122°20'0 0.0
2015-Jan-23 05:33N 47°39' W 122°20'0 0.0
2015-Jan-23 05:31N 47°39' W 122°20'0 0.0
2015-Jan-23 04:33N 47°39' W 122°20'0 0.0
2015-Jan-23 04:31N 47°39' W 122°20'0 0.0
2015-Jan-23 03:33N 47°39' W 122°20'0 0.0
2015-Jan-23 03:31N 47°39' W 122°20'0 0.0
2015-Jan-23 02:32N 47°39' W 122°20'0 0.0
2015-Jan-23 02:29N 47°39' W 122°20'0 0.0
2015-Jan-23 01:34N 47°39' W 122°20'0 0.4
2015-Jan-23 01:33N 47°39' W 122°20'0 0.0
2015-Jan-23 00:34N 47°39' W 122°20'0 0.0
2015-Jan-23 00:33N 47°39' W 122°20'0 0.0
2015-Jan-22 23:34N 47°39' W 122°20'0 0.0
2015-Jan-22 23:33N 47°39' W 122°20'0 0.0
2015-Jan-22 22:33N 47°39' W 122°20'0 0.0
2015-Jan-22 22:33N 47°39' W 122°20'0 0.0
2015-Jan-22 21:15N 47°39' W 122°20'0 0.2
2015-Jan-22 21:13N 47°39' W 122°20'0 0.0
2015-Jan-22 20:33N 47°39' W 122°20'0 0.0
2015-Jan-22 20:32N 47°39' W 122°20'0 0.0
2015-Jan-22 19:12N 47°39' W 122°20'0 0.0
2015-Jan-22 19:11N 47°39' W 122°20'0 0.0
2015-Jan-22 18:34N 47°39' W 122°20'0 0.0
2015-Jan-22 18:31N 47°39' W 122°20'0 0.0
2015-Jan-22 17:33N 47°39' W 122°20'0 0.0
2015-Jan-22 17:31N 47°39' W 122°20'0 0.0
2015-Jan-22 16:33N 47°39' W 122°20'0 0.0
2015-Jan-22 16:31N 47°39' W 122°20'0 0.0
2015-Jan-22 15:33N 47°39' W 122°20'0 0.0
2015-Jan-22 15:31N 47°39' W 122°20'0 0.0
2015-Jan-22 14:33N 47°39' W 122°20'0 0.0
2015-Jan-22 14:31N 47°39' W 122°20'0 0.0
2015-Jan-22 13:33N 47°39' W 122°20'0 0.0
2015-Jan-22 13:31N 47°39' W 122°20'0 0.0
2015-Jan-22 12:33N 47°39' W 122°20'0 0.0
2015-Jan-22 12:30N 47°39' W 122°20'0 0.0
2015-Jan-22 11:32N 47°39' W 122°20'0 0.0
2015-Jan-22 11:30N 47°39' W 122°20'0 0.0
2015-Jan-22 10:33N 47°39' W 122°20'0 0.0
2015-Jan-22 10:30N 47°39' W 122°20'0 0.0
2015-Jan-22 09:33N 47°39' W 122°20'0 0.0
2015-Jan-22 09:30N 47°39' W 122°20'0 0.0
2015-Jan-22 08:33N 47°39' W 122°20'0 0.0
2015-Jan-22 08:30N 47°39' W 122°20'0 0.0
2015-Jan-22 07:33N 47°39' W 122°20'0 0.0
2015-Jan-22 07:30N 47°39' W 122°20'0 0.0
2015-Jan-22 07:05N 47°39' W 122°20'0 0.0
2015-Jan-22 06:20N 47°39' W 122°20'0 0.0
2015-Jan-22 05:33N 47°39' W 122°20'0 0.0
2015-Jan-22 05:29N 47°39' W 122°20'0 0.0
2015-Jan-22 04:33N 47°39' W 122°20'0 0.0
2015-Jan-22 04:29N 47°39' W 122°20'0 0.0
2015-Jan-22 03:34N 47°39' W 122°20'0 0.0
2015-Jan-22 03:32N 47°39' W 122°20'0 0.0
2015-Jan-22 02:33N 47°39' W 122°20'0 0.0
2015-Jan-22 02:32N 47°39' W 122°20'0 0.0
2015-Jan-22 01:31N 47°39' W 122°20'0 0.0
2015-Jan-22 01:31N 47°39' W 122°20'0 0.0
2015-Jan-22 00:33N 47°39' W 122°20'0 0.0
2015-Jan-22 00:31N 47°39' W 122°20'0 0.0
2015-Jan-21 23:33N 47°39' W 122°20'0 0.0
2015-Jan-21 23:31N 47°39' W 122°20'0 0.0
2015-Jan-21 22:50N 47°39' W 122°20'0 0.0
2015-Jan-21 22:46N 47°39' W 122°20'0 0.0
2015-Jan-21 22:46N 47°39' W 122°20'0 0.0
2015-Jan-21 22:22N 47°39' W 122°20'0 0.0
2015-Jan-21 22:21N 47°39' W 122°20'0 0.0
2015-Jan-21 21:33N 47°39' W 122°20'0 0.0
2015-Jan-21 21:30N 47°39' W 122°20'0 0.0
2015-Jan-21 20:33N 47°39' W 122°20'0 0.0
2015-Jan-21 20:30N 47°39' W 122°20'0 0.0
2015-Jan-21 19:33N 47°39' W 122°20'0 0.0
2015-Jan-21 19:30N 47°39' W 122°20'0 0.0
2015-Jan-21 18:33N 47°39' W 122°20'0 0.0
2015-Jan-21 18:30N 47°39' W 122°20'0 0.0
2015-Jan-21 17:33N 47°39' W 122°20'0 0.0
2015-Jan-21 17:30N 47°39' W 122°20'0 0.0
2015-Jan-21 16:33N 47°39' W 122°20'0 0.1
2015-Jan-21 16:30N 47°39' W 122°20'0 0.0
2015-Jan-21 15:33N 47°39' W 122°20'0 0.0
2015-Jan-21 15:30N 47°39' W 122°20'0 0.0
2015-Jan-21 14:33N 47°39' W 122°20'0 0.0
2015-Jan-21 14:29N 47°39' W 122°20'0 0.0
2015-Jan-21 13:33N 47°39' W 122°20'0 0.0
2015-Jan-21 13:29N 47°39' W 122°20'0 0.0
2015-Jan-21 12:33N 47°39' W 122°20'0 0.0
2015-Jan-21 12:29N 47°39' W 122°20'0 0.0
2015-Jan-21 11:34N 47°39' W 122°20'0 0.0
2015-Jan-21 11:33N 47°39' W 122°20'0 0.0
2015-Jan-21 10:31N 47°39' W 122°20'0 0.1
2015-Jan-21 10:28N 47°39' W 122°20'0 0.0
2015-Jan-21 09:33N 47°39' W 122°20'0 0.0
2015-Jan-21 09:33N 47°39' W 122°20'0 0.0
2015-Jan-21 08:33N 47°39' W 122°20'0 0.0
2015-Jan-21 08:33N 47°39' W 122°20'0 0.0
2015-Jan-21 07:33N 47°39' W 122°20'0 0.0
2015-Jan-21 07:32N 47°39' W 122°20'0 0.0
2015-Jan-21 07:02N 47°39' W 122°20'0 0.0
2015-Jan-21 06:34N 47°39' W 122°20'0 0.0
2015-Jan-21 05:33N 47°39' W 122°20'0 0.0
2015-Jan-21 05:32N 47°39' W 122°20'  
Track history (hours):
 
Tides and Currents Weather Stations Pressure Air Temp Water Temp Dewpoint Dewpoint Depression Visibility Wind Speed Wind Dir Waves Ship Positions

Solana

Owner: TAURUS MARINE, SAN FRANCISCO, CA. More information available from US FCC via Universal Licensing System and Coast Guard Vessel Documentation Center.

Last reported at 2015-Jan-31 04:33 UTC. Time now 2015-Jan-31 05:35 UTC.
Position N 47°39' W 122°20'.

Type: Towing. MMSI: 366969740.

Date/timePositionNaut miles runAvg speedWind from/ knotsBaromVisibWave heightAir tempDewpointWater temp
2015-Jan-31 04:33N 47°39' W 122°20'0 0.0
2015-Jan-31 04:32N 47°39' W 122°20'0 0.0
2015-Jan-31 03:33N 47°39' W 122°20'0 0.0
2015-Jan-31 03:32N 47°39' W 122°20'0 0.0
2015-Jan-31 02:37N 47°39' W 122°20'0 0.0
2015-Jan-31 02:33N 47°39' W 122°20'0 0.0
2015-Jan-31 01:15N 47°39' W 122°20'0 0.0
2015-Jan-31 01:13N 47°39' W 122°20'0 0.0
2015-Jan-31 00:36N 47°39' W 122°20'0 0.0
2015-Jan-31 00:33N 47°39' W 122°20'0 0.0
2015-Jan-30 23:33N 47°39' W 122°20'0 0.0
2015-Jan-30 23:31N 47°39' W 122°20'0 0.0
2015-Jan-30 22:33N 47°39' W 122°20'0 0.0
2015-Jan-30 22:31N 47°39' W 122°20'2 2.2
2015-Jan-30 21:33N 47°40' W 122°23'0 5.2
2015-Jan-30 21:30N 47°40' W 122°24'3 3.3
2015-Jan-30 20:33N 47°37' W 122°24'1 8.9
2015-Jan-30 20:30N 47°36' W 122°23'3 3.2
2015-Jan-30 19:33N 47°34' W 122°21'0 3.9
2015-Jan-30 19:30N 47°34' W 122°21'4 3.8
2015-Jan-30 18:33N 47°37' W 122°24'0 9.1
2015-Jan-30 18:30N 47°37' W 122°25'3 2.8
2015-Jan-30 17:33N 47°40' W 122°23'0 5.8
2015-Jan-30 17:30N 47°40' W 122°23'2 0.8
2015-Jan-30 15:26N 47°39' W 122°20'0 0.0
2015-Jan-30 15:06N 47°39' W 122°20'0 0.0
2015-Jan-30 14:34N 47°39' W 122°20'0 0.0
2015-Jan-30 14:31N 47°39' W 122°20'0 0.0
2015-Jan-30 13:33N 47°39' W 122°20'0 0.0
2015-Jan-30 13:31N 47°39' W 122°20'0 0.0
2015-Jan-30 12:33N 47°39' W 122°20'0 0.0
2015-Jan-30 12:31N 47°39' W 122°20'0 0.0
2015-Jan-30 11:26N 47°39' W 122°20'0 0.0
2015-Jan-30 10:39N 47°39' W 122°20'0 0.0
2015-Jan-30 10:33N 47°39' W 122°20'0 0.0
2015-Jan-30 10:29N 47°39' W 122°20'0 0.0
2015-Jan-30 09:33N 47°39' W 122°20'0 0.0
2015-Jan-30 09:33N 47°39' W 122°20'0 0.0
2015-Jan-30 08:34N 47°39' W 122°20'0 0.0
2015-Jan-30 08:33N 47°39' W 122°20'0 0.0
2015-Jan-30 07:33N 47°39' W 122°20'0 0.0
2015-Jan-30 07:33N 47°39' W 122°20'0 0.0
2015-Jan-30 07:03N 47°39' W 122°20'0 0.0
2015-Jan-30 06:33N 47°39' W 122°20'0 0.0
2015-Jan-30 05:33N 47°39' W 122°20'0 0.0
2015-Jan-30 05:33N 47°39' W 122°20'0 0.0
2015-Jan-30 04:33N 47°39' W 122°20'0 0.0
2015-Jan-30 04:33N 47°39' W 122°20'0 0.0
2015-Jan-30 03:33N 47°39' W 122°20'0 0.0
2015-Jan-30 03:33N 47°39' W 122°20'0 0.0
2015-Jan-30 02:09N 47°39' W 122°20'0 0.0
2015-Jan-30 02:07N 47°39' W 122°20'0 0.0
2015-Jan-30 01:27N 47°39' W 122°20'0 0.0
2015-Jan-30 01:26N 47°39' W 122°20'0 0.0
2015-Jan-30 00:34N 47°39' W 122°20'0 0.0
2015-Jan-30 00:31N 47°39' W 122°20'0 0.0
2015-Jan-29 23:33N 47°39' W 122°20'0 0.0
2015-Jan-29 23:31N 47°39' W 122°20'0 0.0
2015-Jan-29 22:33N 47°39' W 122°20'0 0.0
2015-Jan-29 22:30N 47°39' W 122°20'0 0.0
2015-Jan-29 21:33N 47°39' W 122°20'0 0.1
2015-Jan-29 21:30N 47°39' W 122°20'0 0.0
2015-Jan-29 20:23N 47°39' W 122°20'0 0.0
2015-Jan-29 19:53N 47°39' W 122°20'0 0.0
2015-Jan-29 19:34N 47°39' W 122°20'0 0.5
2015-Jan-29 19:33N 47°39' W 122°20'0 0.0
2015-Jan-29 18:33N 47°39' W 122°20'0 0.0
2015-Jan-29 18:33N 47°39' W 122°20'0 0.0
2015-Jan-29 17:33N 47°39' W 122°20'0 0.0
2015-Jan-29 17:33N 47°39' W 122°20'0 0.0
2015-Jan-29 16:33N 47°39' W 122°20'0 0.0
2015-Jan-29 16:33N 47°39' W 122°20'0 0.0
2015-Jan-29 15:33N 47°39' W 122°20'0 0.0
2015-Jan-29 15:33N 47°39' W 122°20'0 0.0
2015-Jan-29 11:57N 47°39' W 122°20'0 0.0
2015-Jan-29 11:33N 47°39' W 122°20'0 0.0
2015-Jan-29 11:32N 47°39' W 122°20'0 0.0
2015-Jan-29 10:11N 47°39' W 122°20'0 0.0
2015-Jan-29 10:10N 47°39' W 122°20'0 0.0
2015-Jan-29 09:33N 47°39' W 122°20'0 0.0
2015-Jan-29 09:30N 47°39' W 122°20'0 0.0
2015-Jan-29 08:33N 47°39' W 122°20'0 0.0
2015-Jan-29 08:30N 47°39' W 122°20'0 0.0
2015-Jan-29 07:33N 47°39' W 122°20'0 0.0
2015-Jan-29 07:31N 47°39' W 122°20'0 0.0
2015-Jan-29 07:01N 47°39' W 122°20'0 0.0
2015-Jan-29 06:33N 47°39' W 122°20'0 0.0
2015-Jan-29 05:33N 47°39' W 122°20'0 0.0
2015-Jan-29 05:30N 47°39' W 122°20'0 0.0
2015-Jan-29 04:33N 47°39' W 122°20'0 0.0
2015-Jan-29 04:30N 47°39' W 122°20'0 0.0
2015-Jan-29 03:33N 47°39' W 122°20'0 0.0
2015-Jan-29 03:30N 47°39' W 122°20'0 0.0
2015-Jan-29 02:33N 47°39' W 122°20'0 0.0
2015-Jan-29 02:30N 47°39' W 122°20'0 0.0
2015-Jan-29 01:33N 47°39' W 122°20'0 0.0
2015-Jan-29 01:30N 47°39' W 122°20'0 0.0
2015-Jan-29 00:33N 47°39' W 122°20'0 0.1
2015-Jan-29 00:30N 47°39' W 122°20'0 0.0
2015-Jan-28 23:33N 47°39' W 122°20'0 0.0
2015-Jan-28 23:30N 47°39' W 122°20'0 0.0
2015-Jan-28 22:33N 47°39' W 122°20'0 0.0
2015-Jan-28 22:30N 47°39' W 122°20'0 0.0
2015-Jan-28 21:33N 47°39' W 122°20'0 0.0
2015-Jan-28 21:29N 47°39' W 122°20'0 0.0
2015-Jan-28 20:34N 47°39' W 122°20'0 0.0
2015-Jan-28 20:33N 47°39' W 122°20'0 0.0
2015-Jan-28 19:34N 47°39' W 122°20'0 0.1
2015-Jan-28 19:29N 47°39' W 122°20'0 0.0
2015-Jan-28 18:21N 47°39' W 122°20'0 0.0
2015-Jan-28 17:33N 47°39' W 122°20'0 0.0
2015-Jan-28 17:31N 47°39' W 122°20'0 0.0
2015-Jan-28 16:33N 47°39' W 122°20'0 0.0
2015-Jan-28 16:31N 47°39' W 122°20'0 0.0
2015-Jan-28 15:26N 47°39' W 122°20'0 0.0
2015-Jan-28 14:33N 47°39' W 122°20'0 0.0
2015-Jan-28 14:30N 47°39' W 122°20'0 0.0
2015-Jan-28 13:33N 47°39' W 122°20'0 0.0
2015-Jan-28 13:30N 47°39' W 122°20'0 0.0
2015-Jan-28 12:33N 47°39' W 122°20'0 0.0
2015-Jan-28 12:30N 47°39' W 122°20'0 0.0
2015-Jan-28 11:33N 47°39' W 122°20'0 0.0
2015-Jan-28 11:30N 47°39' W 122°20'0 0.0
2015-Jan-28 10:33N 47°39' W 122°20'0 0.0
2015-Jan-28 10:30N 47°39' W 122°20'0 0.0
2015-Jan-28 09:33N 47°39' W 122°20'0 0.0
2015-Jan-28 09:33N 47°39' W 122°20'0 0.0
2015-Jan-28 08:34N 47°39' W 122°20'0 0.0
2015-Jan-28 08:28N 47°39' W 122°20'0 0.0
2015-Jan-28 07:34N 47°39' W 122°20'0 0.0
2015-Jan-28 07:33N 47°39' W 122°20'0 0.0
2015-Jan-28 06:59N 47°39' W 122°20'0 0.0
2015-Jan-28 06:33N 47°39' W 122°20'0 0.0
2015-Jan-28 05:34N 47°39' W 122°20'0 0.0
2015-Jan-28 05:33N 47°39' W 122°20'0 0.0
2015-Jan-28 04:33N 47°39' W 122°20'0 0.0
2015-Jan-28 04:33N 47°39' W 122°20'0 0.0
2015-Jan-28 03:33N 47°39' W 122°20'0 0.0
2015-Jan-28 03:33N 47°39' W 122°20'0 0.0
2015-Jan-28 02:33N 47°39' W 122°20'0 0.0
2015-Jan-28 02:33N 47°39' W 122°20'0 0.0
2015-Jan-28 01:33N 47°39' W 122°20'0 0.0
2015-Jan-28 01:33N 47°39' W 122°20'0 0.0
2015-Jan-28 00:33N 47°39' W 122°20'0 0.0
2015-Jan-28 00:33N 47°39' W 122°20'0 0.0
2015-Jan-27 23:33N 47°39' W 122°20'0 0.0
2015-Jan-27 23:33N 47°39' W 122°20'0 0.0
2015-Jan-27 22:33N 47°39' W 122°20'0 0.0
2015-Jan-27 22:32N 47°39' W 122°20'0 0.0
2015-Jan-27 21:33N 47°39' W 122°20'0 0.0
2015-Jan-27 21:32N 47°39' W 122°20'0 0.0
2015-Jan-27 20:33N 47°39' W 122°20'0 0.0
2015-Jan-27 20:32N 47°39' W 122°20'0 0.0
2015-Jan-27 19:33N 47°39' W 122°20'0 0.0
2015-Jan-27 19:32N 47°39' W 122°20'0 0.0
2015-Jan-27 18:33N 47°39' W 122°20'0 0.0
2015-Jan-27 18:32N 47°39' W 122°20'0 0.0
2015-Jan-27 17:33N 47°39' W 122°20'0 0.0
2015-Jan-27 17:32N 47°39' W 122°20'0 0.0
2015-Jan-27 16:33N 47°39' W 122°20'0 0.2
2015-Jan-27 16:32N 47°39' W 122°20'0 0.0
2015-Jan-27 15:33N 47°39' W 122°20'0 0.0
2015-Jan-27 15:32N 47°39' W 122°20'0 0.0
2015-Jan-27 14:33N 47°39' W 122°20'0 0.0
2015-Jan-27 14:32N 47°39' W 122°20'0 0.0
2015-Jan-27 13:33N 47°39' W 122°20'0 0.2
2015-Jan-27 13:32N 47°39' W 122°20'0 0.0
2015-Jan-27 12:33N 47°39' W 122°20'0 0.0
2015-Jan-27 12:31N 47°39' W 122°20'0 0.0
2015-Jan-27 11:33N 47°39' W 122°20'0 0.0
2015-Jan-27 11:30N 47°39' W 122°20'0 0.0
2015-Jan-27 10:34N 47°39' W 122°20'0 0.0
2015-Jan-27 10:30N 47°39' W 122°20'0 0.0
2015-Jan-27 09:33N 47°39' W 122°20'0 0.0
2015-Jan-27 09:30N 47°39' W 122°20'0 0.0
2015-Jan-27 08:33N 47°39' W 122°20'0 0.0
2015-Jan-27 07:12N 47°39' W 122°20'0 0.0
2015-Jan-27 06:15N 47°39' W 122°20'0 0.0
2015-Jan-27 06:11N 47°39' W 122°20'0 0.0
2015-Jan-27 05:33N 47°39' W 122°20'0 0.0
2015-Jan-27 05:31N 47°39' W 122°20'0 0.0
2015-Jan-27 04:33N 47°39' W 122°20'0 0.2
2015-Jan-27 04:31N 47°39' W 122°20'0 0.0
2015-Jan-27 03:33N 47°39' W 122°20'0 0.0
2015-Jan-27 03:31N 47°39' W 122°20'0 0.0
2015-Jan-27 02:33N 47°39' W 122°20'0 0.0
2015-Jan-27 02:31N 47°39' W 122°20'0 0.0
2015-Jan-27 01:33N 47°39' W 122°20'0 0.0
2015-Jan-27 01:30N 47°39' W 122°20'0 0.0
2015-Jan-27 00:33N 47°39' W 122°20'0 0.1
2015-Jan-27 00:30N 47°39' W 122°20'0 0.0
2015-Jan-26 23:33N 47°39' W 122°20'0 0.0
2015-Jan-26 23:30N 47°39' W 122°20'0 0.0
2015-Jan-26 22:33N 47°39' W 122°20'0 0.0
2015-Jan-26 22:30N 47°39' W 122°20'0 0.0
2015-Jan-26 21:33N 47°39' W 122°20'0 0.0
2015-Jan-26 21:30N 47°39' W 122°20'0 0.0
2015-Jan-26 20:33N 47°39' W 122°20'0 0.0
2015-Jan-26 20:30N 47°39' W 122°20'0 0.0
2015-Jan-26 19:33N 47°39' W 122°20'0 0.0
2015-Jan-26 19:30N 47°39' W 122°20'0 0.0
2015-Jan-26 18:33N 47°39' W 122°20'0 0.1
2015-Jan-26 18:29N 47°39' W 122°20'0 0.0
2015-Jan-26 17:33N 47°39' W 122°20'0 0.0
2015-Jan-26 17:29N 47°39' W 122°20'0 0.0
2015-Jan-26 16:33N 47°39' W 122°20'0 0.0
2015-Jan-26 16:29N 47°39' W 122°20'0 0.0
2015-Jan-26 15:33N 47°39' W 122°20'0 0.0
2015-Jan-26 15:29N 47°39' W 122°20'0 0.0
2015-Jan-26 14:33N 47°39' W 122°20'0 0.0
2015-Jan-26 14:29N 47°39' W 122°20'0 0.0
2015-Jan-26 13:33N 47°39' W 122°20'0 0.0
2015-Jan-26 13:29N 47°39' W 122°20'0 0.0
2015-Jan-26 12:33N 47°39' W 122°20'0 0.0
2015-Jan-26 12:29N 47°39' W 122°20'0 0.0
2015-Jan-26 11:33N 47°39' W 122°20'0 0.0
2015-Jan-26 11:29N 47°39' W 122°20'0 0.0
2015-Jan-26 10:34N 47°39' W 122°20'0 0.0
2015-Jan-26 10:33N 47°39' W 122°20'0 0.0
2015-Jan-26 09:33N 47°39' W 122°20'0 0.0
2015-Jan-26 09:33N 47°39' W 122°20'0 0.0
2015-Jan-26 08:33N 47°39' W 122°20'0 0.0
2015-Jan-26 08:33N 47°39' W 122°20'0 0.0
2015-Jan-26 07:33N 47°39' W 122°20'0 0.0
2015-Jan-26 07:33N 47°39' W 122°20'0 0.0
2015-Jan-26 07:03N 47°39' W 122°20'0 0.0
2015-Jan-26 06:33N 47°39' W 122°20'0 0.0
2015-Jan-26 05:33N 47°39' W 122°20'0 0.0
2015-Jan-26 05:33N 47°39' W 122°20'0 0.0
2015-Jan-26 04:33N 47°39' W 122°20'0 0.0
2015-Jan-26 04:33N 47°39' W 122°20'0 0.0
2015-Jan-26 03:33N 47°39' W 122°20'0 0.0
2015-Jan-26 03:33N 47°39' W 122°20'0 0.0
2015-Jan-26 02:33N 47°39' W 122°20'0 0.0
2015-Jan-26 02:33N 47°39' W 122°20'0 0.0
2015-Jan-26 01:28N 47°39' W 122°20'0 0.0
2015-Jan-26 01:01N 47°39' W 122°20'0 0.0
2015-Jan-26 00:33N 47°39' W 122°20'0 0.0
2015-Jan-26 00:31N 47°39' W 122°20'0 0.0
2015-Jan-25 23:33N 47°39' W 122°20'0 0.0
2015-Jan-25 23:31N 47°39' W 122°20'0 0.0
2015-Jan-25 22:33N 47°39' W 122°20'0 0.0
2015-Jan-25 22:31N 47°39' W 122°20'0 0.0
2015-Jan-25 21:33N 47°39' W 122°20'0 0.1
2015-Jan-25 21:31N 47°39' W 122°20'0 0.0
2015-Jan-25 20:33N 47°39' W 122°20'0 0.1
2015-Jan-25 20:30N 47°39' W 122°20'0 0.0
2015-Jan-25 19:33N 47°39' W 122°20'0 0.0
2015-Jan-25 19:30N 47°39' W 122°20'0 0.0
2015-Jan-25 18:33N 47°39' W 122°20'0 0.1
2015-Jan-25 18:30N 47°39' W 122°20'0 0.0
2015-Jan-25 17:33N 47°39' W 122°20'0 0.0
2015-Jan-25 17:29N 47°39' W 122°20'0 0.0
2015-Jan-25 16:33N 47°39' W 122°20'0 0.0
2015-Jan-25 16:29N 47°39' W 122°20'0 0.0
2015-Jan-25 15:28N 47°39' W 122°20'0 0.0
2015-Jan-25 14:33N 47°39' W 122°20'0 0.0
2015-Jan-25 14:33N 47°39' W 122°20'0 0.0
2015-Jan-25 13:33N 47°39' W 122°20'0 0.0
2015-Jan-25 13:33N 47°39' W 122°20'0 0.0
2015-Jan-25 12:31N 47°39' W 122°20'0 0.0
2015-Jan-25 12:28N 47°39' W 122°20'0 0.0
2015-Jan-25 11:33N 47°39' W 122°20'0 0.0
2015-Jan-25 11:31N 47°39' W 122°20'0 0.0
2015-Jan-25 10:34N 47°39' W 122°20'0 0.0
2015-Jan-25 10:31N 47°39' W 122°20'0 0.0
2015-Jan-25 09:33N 47°39' W 122°20'0 0.0
2015-Jan-25 09:31N 47°39' W 122°20'0 0.0
2015-Jan-25 08:33N 47°39' W 122°20'0 0.0
2015-Jan-25 08:31N 47°39' W 122°20'0 0.0
2015-Jan-25 07:33N 47°39' W 122°20'0 0.0
2015-Jan-25 07:30N 47°39' W 122°20'0 0.0
2015-Jan-25 07:06N 47°39' W 122°20'0 0.0
2015-Jan-25 06:33N 47°39' W 122°20'0 0.0
2015-Jan-25 05:33N 47°39' W 122°20'0 0.0
2015-Jan-25 05:30N 47°39' W 122°20'0 0.0
2015-Jan-25 04:33N 47°39' W 122°20'0 0.0
2015-Jan-25 04:30N 47°39' W 122°20'0 0.0
2015-Jan-25 03:34N 47°39' W 122°20'0 0.0
2015-Jan-25 03:30N 47°39' W 122°20'0 0.0
2015-Jan-25 02:07N 47°39' W 122°20'0 0.0
2015-Jan-25 02:07N 47°39' W 122°20'0 0.0
2015-Jan-25 01:20N 47°39' W 122°20'0 0.1
2015-Jan-25 01:16N 47°39' W 122°20'0 0.0
2015-Jan-25 00:34N 47°39' W 122°20'0 0.0
2015-Jan-25 00:31N 47°39' W 122°20'0 0.0
2015-Jan-24 23:33N 47°39' W 122°20'0 0.0
2015-Jan-24 23:31N 47°39' W 122°20'0 0.0
2015-Jan-24 22:33N 47°39' W 122°20'0 0.0
2015-Jan-24 22:31N 47°39' W 122°20'0 0.0
2015-Jan-24 21:33N 47°39' W 122°20'0 0.1
2015-Jan-24 21:30N 47°39' W 122°20'0 0.0
2015-Jan-24 19:35N 47°39' W 122°20'0 0.0
2015-Jan-24 19:25N 47°39' W 122°20'0 0.0
2015-Jan-24 18:54N 47°39' W 122°20'0 0.0
2015-Jan-24 17:16N 47°39' W 122°20'0 0.0
2015-Jan-24 17:12N 47°39' W 122°20'0 0.0
2015-Jan-24 16:33N 47°39' W 122°20'0 0.0
2015-Jan-24 16:32N 47°39' W 122°20'0 0.0
2015-Jan-24 15:33N 47°39' W 122°20'0 0.2
2015-Jan-24 15:32N 47°39' W 122°20'0 0.0
2015-Jan-24 14:33N 47°39' W 122°20'0 0.0
2015-Jan-24 14:32N 47°39' W 122°20'0 0.0
2015-Jan-24 13:33N 47°39' W 122°20'0 0.0
2015-Jan-24 13:31N 47°39' W 122°20'0 0.0
2015-Jan-24 12:33N 47°39' W 122°20'0 0.0
2015-Jan-24 12:31N 47°39' W 122°20'0 0.0
2015-Jan-24 11:33N 47°39' W 122°20'0 0.0
2015-Jan-24 11:30N 47°39' W 122°20'0 0.0
2015-Jan-24 10:33N 47°39' W 122°20'0 0.1
2015-Jan-24 10:31N 47°39' W 122°20'0 0.0
2015-Jan-24 09:33N 47°39' W 122°20'0 0.0
2015-Jan-24 09:31N 47°39' W 122°20'0 0.0
2015-Jan-24 08:33N 47°39' W 122°20'0 0.0
2015-Jan-24 08:30N 47°39' W 122°20'0 0.0
2015-Jan-24 07:33N 47°39' W 122°20'0 0.0
2015-Jan-24 07:30N 47°39' W 122°20'0 0.0
2015-Jan-24 07:00N 47°39' W 122°20'0 0.0
2015-Jan-24 06:33N 47°39' W 122°20'0 0.0
2015-Jan-24 05:33N 47°39' W 122°20'0 0.0
2015-Jan-24 05:30N 47°39' W 122°20'0 0.0
2015-Jan-24 04:33N 47°39' W 122°20'0 0.0
2015-Jan-24 04:30N 47°39' W 122°20'0 0.0
2015-Jan-24 03:33N 47°39' W 122°20'0 0.0
2015-Jan-24 03:29N 47°39' W 122°20'0 0.0
2015-Jan-24 02:33N 47°39' W 122°20'0 0.0
2015-Jan-24 02:29N 47°39' W 122°20'0 0.0
2015-Jan-24 01:33N 47°39' W 122°20'0 0.0
2015-Jan-24 01:29N 47°39' W 122°20'0 0.0
2015-Jan-24 00:33N 47°39' W 122°20'0 0.0
2015-Jan-24 00:33N 47°39' W 122°20'0 0.0
2015-Jan-23 23:34N 47°39' W 122°20'0 0.0
2015-Jan-23 23:33N 47°39' W 122°20'0 0.0
2015-Jan-23 22:33N 47°39' W 122°20'0 0.0
2015-Jan-23 22:33N 47°39' W 122°20'0 0.0
2015-Jan-23 21:33N 47°39' W 122°20'0 0.0
2015-Jan-23 21:33N 47°39' W 122°20'0 0.0
2015-Jan-23 14:25N 47°39' W 122°20'0 0.0
2015-Jan-23 13:30N 47°39' W 122°20'0 0.0
2015-Jan-23 12:19N 47°39' W 122°20'0 0.0
2015-Jan-23 10:25N 47°39' W 122°20'0 0.0
2015-Jan-23 09:15N 47°39' W 122°20'0 0.0
2015-Jan-23 07:32N 47°39' W 122°20'0 0.0
2015-Jan-23 06:30N 47°39' W 122°20'0 0.0
2015-Jan-23 05:33N 47°39' W 122°20'0 0.0
2015-Jan-23 05:31N 47°39' W 122°20'0 0.0
2015-Jan-23 04:33N 47°39' W 122°20'0 0.0
2015-Jan-23 04:31N 47°39' W 122°20'0 0.0
2015-Jan-23 03:33N 47°39' W 122°20'0 0.0
2015-Jan-23 03:31N 47°39' W 122°20'0 0.0
2015-Jan-23 02:32N 47°39' W 122°20'0 0.0
2015-Jan-23 02:29N 47°39' W 122°20'0 0.0
2015-Jan-23 01:34N 47°39' W 122°20'0 0.4
2015-Jan-23 01:33N 47°39' W 122°20'0 0.0
2015-Jan-23 00:34N 47°39' W 122°20'0 0.0
2015-Jan-23 00:33N 47°39' W 122°20'0 0.0
2015-Jan-22 23:34N 47°39' W 122°20'0 0.0
2015-Jan-22 23:33N 47°39' W 122°20'0 0.0
2015-Jan-22 22:33N 47°39' W 122°20'0 0.0
2015-Jan-22 22:33N 47°39' W 122°20'0 0.0
2015-Jan-22 21:15N 47°39' W 122°20'0 0.2
2015-Jan-22 21:13N 47°39' W 122°20'0 0.0
2015-Jan-22 20:33N 47°39' W 122°20'0 0.0
2015-Jan-22 20:32N 47°39' W 122°20'0 0.0
2015-Jan-22 19:12N 47°39' W 122°20'0 0.0
2015-Jan-22 19:11N 47°39' W 122°20'0 0.0
2015-Jan-22 18:34N 47°39' W 122°20'0 0.0
2015-Jan-22 18:31N 47°39' W 122°20'0 0.0
2015-Jan-22 17:33N 47°39' W 122°20'0 0.0
2015-Jan-22 17:31N 47°39' W 122°20'0 0.0
2015-Jan-22 16:33N 47°39' W 122°20'0 0.0
2015-Jan-22 16:31N 47°39' W 122°20'0 0.0
2015-Jan-22 15:33N 47°39' W 122°20'0 0.0
2015-Jan-22 15:31N 47°39' W 122°20'0 0.0
2015-Jan-22 14:33N 47°39' W 122°20'0 0.0
2015-Jan-22 14:31N 47°39' W 122°20'0 0.0
2015-Jan-22 13:33N 47°39' W 122°20'0 0.0
2015-Jan-22 13:31N 47°39' W 122°20'0 0.0
2015-Jan-22 12:33N 47°39' W 122°20'0 0.0
2015-Jan-22 12:30N 47°39' W 122°20'0 0.0
2015-Jan-22 11:32N 47°39' W 122°20'0 0.0
2015-Jan-22 11:30N 47°39' W 122°20'0 0.0
2015-Jan-22 10:33N 47°39' W 122°20'0 0.0
2015-Jan-22 10:30N 47°39' W 122°20'0 0.0
2015-Jan-22 09:33N 47°39' W 122°20'0 0.0
2015-Jan-22 09:30N 47°39' W 122°20'0 0.0
2015-Jan-22 08:33N 47°39' W 122°20'0 0.0
2015-Jan-22 08:30N 47°39' W 122°20'0 0.0
2015-Jan-22 07:33N 47°39' W 122°20'0 0.0
2015-Jan-22 07:30N 47°39' W 122°20'0 0.0
2015-Jan-22 07:05N 47°39' W 122°20'0 0.0
2015-Jan-22 06:20N 47°39' W 122°20'0 0.0
2015-Jan-22 05:33N 47°39' W 122°20'0 0.0
2015-Jan-22 05:29N 47°39' W 122°20'0 0.0
2015-Jan-22 04:33N 47°39' W 122°20'0 0.0
2015-Jan-22 04:29N 47°39' W 122°20'0 0.0
2015-Jan-22 03:34N 47°39' W 122°20'0 0.0
2015-Jan-22 03:32N 47°39' W 122°20'0 0.0
2015-Jan-22 02:33N 47°39' W 122°20'0 0.0
2015-Jan-22 02:32N 47°39' W 122°20'0 0.0
2015-Jan-22 01:31N 47°39' W 122°20'0 0.0
2015-Jan-22 01:31N 47°39' W 122°20'0 0.0
2015-Jan-22 00:33N 47°39' W 122°20'0 0.0
2015-Jan-22 00:31N 47°39' W 122°20'0 0.0
2015-Jan-21 23:33N 47°39' W 122°20'0 0.0
2015-Jan-21 23:31N 47°39' W 122°20'0 0.0
2015-Jan-21 22:50N 47°39' W 122°20'0 0.0
2015-Jan-21 22:46N 47°39' W 122°20'0 0.0
2015-Jan-21 22:46N 47°39' W 122°20'0 0.0
2015-Jan-21 22:22N 47°39' W 122°20'0 0.0
2015-Jan-21 22:21N 47°39' W 122°20'0 0.0
2015-Jan-21 21:33N 47°39' W 122°20'0 0.0
2015-Jan-21 21:30N 47°39' W 122°20'0 0.0
2015-Jan-21 20:33N 47°39' W 122°20'0 0.0
2015-Jan-21 20:30N 47°39' W 122°20'0 0.0
2015-Jan-21 19:33N 47°39' W 122°20'0 0.0
2015-Jan-21 19:30N 47°39' W 122°20'0 0.0
2015-Jan-21 18:33N 47°39' W 122°20'0 0.0
2015-Jan-21 18:30N 47°39' W 122°20'0 0.0
2015-Jan-21 17:33N 47°39' W 122°20'0 0.0
2015-Jan-21 17:30N 47°39' W 122°20'0 0.0
2015-Jan-21 16:33N 47°39' W 122°20'0 0.1
2015-Jan-21 16:30N 47°39' W 122°20'0 0.0
2015-Jan-21 15:33N 47°39' W 122°20'0 0.0
2015-Jan-21 15:30N 47°39' W 122°20'0 0.0
2015-Jan-21 14:33N 47°39' W 122°20'0 0.0
2015-Jan-21 14:29N 47°39' W 122°20'0 0.0
2015-Jan-21 13:33N 47°39' W 122°20'0 0.0
2015-Jan-21 13:29N 47°39' W 122°20'0 0.0
2015-Jan-21 12:33N 47°39' W 122°20'0 0.0
2015-Jan-21 12:29N 47°39' W 122°20'0 0.0
2015-Jan-21 11:34N 47°39' W 122°20'0 0.0
2015-Jan-21 11:33N 47°39' W 122°20'0 0.0
2015-Jan-21 10:31N 47°39' W 122°20'0 0.1
2015-Jan-21 10:28N 47°39' W 122°20'0 0.0
2015-Jan-21 09:33N 47°39' W 122°20'0 0.0
2015-Jan-21 09:33N 47°39' W 122°20'0 0.0
2015-Jan-21 08:33N 47°39' W 122°20'0 0.0
2015-Jan-21 08:33N 47°39' W 122°20'0 0.0
2015-Jan-21 07:33N 47°39' W 122°20'0 0.0
2015-Jan-21 07:32N 47°39' W 122°20'0 0.0
2015-Jan-21 07:02N 47°39' W 122°20'0 0.0
2015-Jan-21 06:34N 47°39' W 122°20'0 0.0
2015-Jan-21 05:33N 47°39' W 122°20'0 0.0
2015-Jan-21 05:32N 47°39' W 122°20'  

Dump ship's entire track history